Grande Mariner — WCY6594 — position and weather

sailwx.info

Track history (hours):
 
Tides and Currents Weather Stations Pressure Air Temp Water Temp Dewpoint Dewpoint Depression Visibility Wind Speed Wind Dir Waves Ship Positions

Grande Mariner

Owner: AMERICAN CANADIAN CARIBBEAN LINE INC, WARREN, RI. More information available from US FCC via Universal Licensing System and Coast Guard Vessel Documentation Center.

Last reported at 2017-Jun-20 15:52 UTC. Time now 2017-Jun-25 02:00 UTC.
Position N 45°25' W 083°33'.

Length 56 m; draft 2 m.

Type: Passenger vessel. MMSI: 369024000.

Date/timePositionNaut miles runAvg speedWind from/ knotsBaromVisibWave heightAir tempDewpointWater temp
2017-Jun-20 15:52N 45°25' W 083°33'410.6
2017-Jun-20 15:30N 45°27' W 083°38'510.6
2017-Jun-20 15:00N 45°29' W 083°45'510.6
2017-Jun-20 14:30N 45°31' W 083°52'3210.4
2017-Jun-20 11:22N 45°45' W 084°34'510.2
2017-Jun-20 10:50N 45°49' W 084°38'5 3.6
2017-Jun-20 09:33N 45°52' W 084°43'0 9.6
2017-Jun-20 09:30N 45°52' W 084°42'4 8.2
2017-Jun-20 09:00N 45°51' W 084°37'0 0.1
2017-Jun-20 08:13N 45°51' W 084°37'0 0.0
2017-Jun-20 07:38N 45°51' W 084°37'0 0.0
2017-Jun-20 07:30N 45°51' W 084°37'0 0.0
2017-Jun-20 07:00N 45°51' W 084°37'0 0.0
2017-Jun-20 06:30N 45°51' W 084°37'0 0.0
2017-Jun-20 02:54N 45°51' W 084°37'0 0.0
2017-Jun-20 02:30N 45°51' W 084°37'0 0.0
2017-Jun-19 12:26N 45°51' W 084°37'5 8.7
2017-Jun-19 11:51N 45°49' W 084°44'3 6.9
2017-Jun-19 11:27N 45°49' W 084°48'4 9.5
2017-Jun-19 11:00N 45°50' W 084°53'510.5
2017-Jun-19 10:30N 45°50' W 085°01'510.6
2017-Jun-19 10:00N 45°51' W 085°09'610.5
2017-Jun-19 09:27N 45°52' W 085°17'  
2017-Jun-12 16:20N 45°52' W 085°20'510.4
2017-Jun-12 15:51N 45°52' W 085°13'410.3
2017-Jun-12 15:27N 45°51' W 085°07'21 0.9
2017-Jun-11 15:28N 45°51' W 084°37'3 1.8
2017-Jun-11 13:59N 45°51' W 084°41'610.1
2017-Jun-11 13:21N 45°46' W 084°35'310.2
2017-Jun-11 13:01N 45°43' W 084°32'28 9.7
2017-Jun-11 10:08N 45°33' W 083°55'110.0
2017-Jun-11 10:00N 45°32' W 083°53'510.0
2017-Jun-11 09:30N 45°30' W 083°47'510.2
2017-Jun-11 09:00N 45°28' W 083°40'5 9.8
2017-Jun-11 08:30N 45°26' W 083°34'  
Track history (hours):
 
Tides and Currents Weather Stations Pressure Air Temp Water Temp Dewpoint Dewpoint Depression Visibility Wind Speed Wind Dir Waves Ship Positions

Grande Mariner

Owner: AMERICAN CANADIAN CARIBBEAN LINE INC, WARREN, RI. More information available from US FCC via Universal Licensing System and Coast Guard Vessel Documentation Center.

Last reported at 2017-Jun-20 15:52 UTC. Time now 2017-Jun-25 02:00 UTC.
Position N 45°25' W 083°33'.

Length 56 m; draft 2 m.

Type: Passenger vessel. MMSI: 369024000.

Date/timePositionNaut miles runAvg speedWind from/ knotsBaromVisibWave heightAir tempDewpointWater temp
2017-Jun-20 15:52N 45°25' W 083°33'410.6
2017-Jun-20 15:30N 45°27' W 083°38'510.6
2017-Jun-20 15:00N 45°29' W 083°45'510.6
2017-Jun-20 14:30N 45°31' W 083°52'3210.4
2017-Jun-20 11:22N 45°45' W 084°34'510.2
2017-Jun-20 10:50N 45°49' W 084°38'5 3.6
2017-Jun-20 09:33N 45°52' W 084°43'0 9.6
2017-Jun-20 09:30N 45°52' W 084°42'4 8.2
2017-Jun-20 09:00N 45°51' W 084°37'0 0.1
2017-Jun-20 08:13N 45°51' W 084°37'0 0.0
2017-Jun-20 07:38N 45°51' W 084°37'0 0.0
2017-Jun-20 07:30N 45°51' W 084°37'0 0.0
2017-Jun-20 07:00N 45°51' W 084°37'0 0.0
2017-Jun-20 06:30N 45°51' W 084°37'0 0.0
2017-Jun-20 02:54N 45°51' W 084°37'0 0.0
2017-Jun-20 02:30N 45°51' W 084°37'0 0.0
2017-Jun-19 12:26N 45°51' W 084°37'5 8.7
2017-Jun-19 11:51N 45°49' W 084°44'3 6.9
2017-Jun-19 11:27N 45°49' W 084°48'4 9.5
2017-Jun-19 11:00N 45°50' W 084°53'510.5
2017-Jun-19 10:30N 45°50' W 085°01'510.6
2017-Jun-19 10:00N 45°51' W 085°09'610.5
2017-Jun-19 09:27N 45°52' W 085°17'  
2017-Jun-12 16:20N 45°52' W 085°20'510.4
2017-Jun-12 15:51N 45°52' W 085°13'410.3
2017-Jun-12 15:27N 45°51' W 085°07'21 0.9
2017-Jun-11 15:28N 45°51' W 084°37'3 1.8
2017-Jun-11 13:59N 45°51' W 084°41'610.1
2017-Jun-11 13:21N 45°46' W 084°35'310.2
2017-Jun-11 13:01N 45°43' W 084°32'28 9.7
2017-Jun-11 10:08N 45°33' W 083°55'110.0
2017-Jun-11 10:00N 45°32' W 083°53'510.0
2017-Jun-11 09:30N 45°30' W 083°47'510.2
2017-Jun-11 09:00N 45°28' W 083°40'5 9.8
2017-Jun-11 08:30N 45°26' W 083°34'  

Dump ship's entire track history